Watertown, WI

6:04 PM CDT on October 24, 2014 (GMT -0500)
Dane County Regional-Truax | Change Station
CLOSE
Current Station
Airport
Location: Madison,
Elevation: 866 ft
Nearby Weather Stations

Elev 866 ft 43.14 °N, 89.35 °W | Updated 11 minutes ago

Partly Cloudy
Partly Cloudy
60 °F
Feels Like 60 °F
N
8
Wind Variable Wind from South

Today
High -- | Low -- °F
--% Chance of Precip.
Yesterday
High -- | Low -- °F
Precip. -- in
7:19 AM 5:57 PM
New Moon, 1% visible
Pressure 29.91 in
Visibility 10.0 miles
Clouds Scattered Clouds 5000 ft
Mostly Cloudy 8500 ft
Mostly Cloudy 25000 ft
Dew Point 50 °F
Humidity 69%
Rainfall 0.00 in
Snow Depth Not available.
UV 0 out of 12
Pollen 1.10 out of 12
Air Quality Not available.
Flu Activity Sporadic
METAR KMSN 242253Z 18007KT 10SM SCT050 BKN085 BKN250 16/10 A2990 RMK AO2 SLP127 T01560100

More Conditions Fewer Conditions

Pressure 29.91 in
Visibility 10.0 miles
Clouds Scattered Clouds 5000 ft
Mostly Cloudy 8500 ft
Mostly Cloudy 25000 ft
Dew Point 50 °F
Humidity 69%
Rainfall 0.00 in
Snow Depth Not available.
UV 0 out of 12
Pollen 1.10 out of 12
Air Quality Not available.
Flu Activity Sporadic
METAR KMSN 242253Z 18007KT 10SM SCT050 BKN085 BKN250 16/10 A2990 RMK AO2 SLP127 T01560100

More Conditions Fewer Conditions

10-Day Weather Forecast

Almanac

Astronomy

Oct. 24, 2014 Rise Set
Actual Time 7:19 AM CDT 5:57 PM CDT
Civil Twilight 6:50 AM CDT 6:26 PM CDT
Nautical Twilight 6:17 AM CDT 7:00 PM CDT
Astronomical Twilight 5:44 AM CDT 7:33 PM CDT
Moon 7:59 AM CDT 6:36 PM CDT
Length of Visible Light 11h 36m
Length of Day
10h 38m
Tomorrow will be 2m 44s shorter.
New Moon, 1% of the Moon is Illuminated
Today
New Moon
Oct 30
First Quarter
Nov 6
Full
Nov 14
Last Quarter
Nov 22
New

Today's Extremes

State Highs State Lows

Community

WunderPhotos

Upload Photos

1,764,705 photos uploaded!

Nearby

Snow Depth

Station Depth Elevation
No new snow has been reported.

Earthquake Activity

City Distance Mag. Time & Date
No recent earthquake activity has been reported nearby.
Minimum magnitude displayed is 2.5.

Coastal Water Temperatures

Place Temperature
No Stations Reporting

Nearby Weather Stations